Time;durP1;ratioP1;P1;durP2;ratioP2;P2;SDS_P1;SDS_P2;PMS_P1;PMS_P2;Temp;Humidity;BMP_temperature;BMP_pressure;BME280_temperature;BME280_humidity;BME280_pressure;Samples;Min_cycle;Max_cycle;Signal;HPM_P1;HPM_P2
2023/04/17 00:01:43;;;;;;;13.48;2.72;;;;;;;;;;5014577;28;20402;-80
2023/04/17 00:04:09;;;;;;;9.00;2.60;;;;;;;;;;5021619;28;20030;-81
2023/04/17 00:06:45;;;;;;;11.02;2.78;;;;;;;;;;5021534;28;20108;-80
2023/04/17 00:09:17;;;;;;;9.10;2.75;;;;;;;;;;5014125;28;20088;-79
2023/04/17 00:11:42;;;;;;;8.88;3.05;;;;;;;;;;5014199;28;20045;-80
2023/04/17 00:14:14;;;;;;;13.07;3.20;;;;;;;;;;5015155;28;20435;-80
2023/04/17 00:16:46;;;;;;;12.00;3.22;;;;;;;;;;5013752;28;20084;-79
2023/04/17 00:19:12;;;;;;;7.38;2.83;;;;;;;;;;5016049;28;20099;-81
2023/04/17 00:21:44;;;;;;;9.80;2.83;;;;;;;;;;5012169;28;20405;-79
2023/04/17 00:24:16;;;;;;;10.10;3.20;;;;;;;;;;5015477;28;20049;-80
2023/04/17 00:26:41;;;;;;;9.05;2.80;;;;;;;;;;5018508;28;20053;-80
2023/04/17 00:29:13;;;;;;;10.60;2.70;;;;;;;;;;5031500;28;20138;-80
2023/04/17 00:31:45;;;;;;;12.20;2.97;;;;;;;;;;5013269;28;20505;-81
2023/04/17 00:34:10;;;;;;;7.47;3.03;;;;;;;;;;5021130;28;20069;-79
2023/04/17 00:36:42;;;;;;;7.22;2.50;;;;;;;;;;5013985;28;20468;-80
2023/04/17 00:39:14;;;;;;;7.60;2.78;;;;;;;;;;5016315;28;20069;-81
2023/04/17 00:41:40;;;;;;;8.45;2.55;;;;;;;;;;5015171;28;20049;-80
2023/04/17 00:44:12;;;;;;;6.65;2.70;;;;;;;;;;5014968;28;20038;-80
2023/04/17 00:46:44;;;;;;;8.00;2.42;;;;;;;;;;5015237;28;20510;-80
2023/04/17 00:49:10;;;;;;;7.68;2.55;;;;;;;;;;5014823;28;20038;-81
2023/04/17 00:51:42;;;;;;;11.90;2.67;;;;;;;;;;5029076;28;20037;-81
2023/04/17 00:54:15;;;;;;;9.15;2.33;;;;;;;;;;5016752;28;20092;-80
2023/04/17 00:56:41;;;;;;;5.65;2.20;;;;;;;;;;5029144;28;20034;-80
2023/04/17 00:59:17;;;;;;;6.05;2.55;;;;;;;;;;5032833;28;20036;-81
2023/04/17 01:01:49;;;;;;;7.65;2.10;;;;;;;;;;5029806;28;20056;-80
2023/04/17 01:04:14;;;;;;;4.85;2.50;;;;;;;;;;5015810;28;20505;-80
2023/04/17 01:06:46;;;;;;;6.40;2.30;;;;;;;;;;5045360;28;20049;-81
2023/04/17 01:09:18;;;;;;;5.25;2.22;;;;;;;;;;5015123;28;20029;-80
2023/04/17 01:11:43;;;;;;;6.65;2.70;;;;;;;;;;5015178;28;20048;-80
2023/04/17 01:14:15;;;;;;;7.55;2.33;;;;;;;;;;5023604;28;20117;-81
2023/04/17 01:16:47;;;;;;;10.05;2.25;;;;;;;;;;5009092;28;20041;-80
2023/04/17 01:19:14;;;;;;;8.98;2.90;;;;;;;;;;5013837;28;20057;-81
2023/04/17 01:21:46;;;;;;;6.13;2.20;;;;;;;;;;5012197;28;20033;-81
2023/04/17 01:24:18;;;;;;;9.60;2.47;;;;;;;;;;5014336;28;20083;-81
2023/04/17 01:26:43;;;;;;;8.07;2.53;;;;;;;;;;5016425;28;20061;-81
2023/04/17 01:29:15;;;;;;;8.32;2.63;;;;;;;;;;5016118;28;20081;-80
2023/04/17 01:31:47;;;;;;;9.10;3.05;;;;;;;;;;5013354;28;20179;-81
2023/04/17 01:34:13;;;;;;;7.45;2.88;;;;;;;;;;5020372;28;20049;-80
2023/04/17 01:36:44;;;;;;;7.80;2.78;;;;;;;;;;5022697;28;20041;-79
2023/04/17 01:39:16;;;;;;;6.38;2.55;;;;;;;;;;5016698;28;20132;-80
2023/04/17 01:41:42;;;;;;;6.55;2.72;;;;;;;;;;5014790;28;20065;-80
2023/04/17 01:44:14;;;;;;;8.02;2.25;;;;;;;;;;5018209;28;20111;-80
2023/04/17 01:46:46;;;;;;;6.07;2.78;;;;;;;;;;5013941;28;20046;-80
2023/04/17 01:49:12;;;;;;;8.48;2.60;;;;;;;;;;5017185;28;20046;-79
2023/04/17 01:51:44;;;;;;;7.28;2.72;;;;;;;;;;5021527;28;20048;-80
2023/04/17 01:54:16;;;;;;;6.20;2.40;;;;;;;;;;5026683;28;20037;-80
2023/04/17 01:56:41;;;;;;;9.65;2.78;;;;;;;;;;5017626;28;20436;-80
2023/04/17 01:59:15;;;;;;;6.45;2.63;;;;;;;;;;5028898;28;20091;-80
2023/04/17 02:01:51;;;;;;;7.13;2.80;;;;;;;;;;5016795;28;20535;-80
2023/04/17 02:04:23;;;;;;;7.68;3.00;;;;;;;;;;5032892;28;20030;-80
2023/04/17 02:06:55;;;;;;;6.72;2.78;;;;;;;;;;5019585;28;20104;-81
2023/04/17 02:09:21;;;;;;;10.65;2.72;;;;;;;;;;5017632;28;20046;-80
2023/04/17 02:11:53;;;;;;;10.65;2.65;;;;;;;;;;5016540;28;20351;-80
2023/04/17 02:14:25;;;;;;;6.63;2.60;;;;;;;;;;5020456;28;20095;-80
2023/04/17 02:16:52;;;;;;;10.35;3.05;;;;;;;;;;5016159;28;20533;-80
2023/04/17 02:19:24;;;;;;;10.30;3.10;;;;;;;;;;5015967;28;20410;-81
2023/04/17 02:21:56;;;;;;;6.35;2.80;;;;;;;;;;5016388;28;20121;-80
2023/04/17 02:24:21;;;;;;;5.55;2.80;;;;;;;;;;5017436;28;20487;-81
2023/04/17 02:26:53;;;;;;;7.10;3.03;;;;;;;;;;5016379;28;20109;-80
2023/04/17 02:29:25;;;;;;;12.95;3.00;;;;;;;;;;5018198;28;20092;-80
2023/04/17 02:31:50;;;;;;;11.32;3.28;;;;;;;;;;5016190;28;20106;-81
2023/04/17 02:34:22;;;;;;;12.23;2.95;;;;;;;;;;5016271;28;20125;-80
2023/04/17 02:36:54;;;;;;;9.35;2.95;;;;;;;;;;5008580;28;20444;-80
2023/04/17 02:39:20;;;;;;;3.97;2.05;;;;;;;;;;5017332;28;20385;-81
2023/04/17 02:41:51;;;;;;;10.07;2.80;;;;;;;;;;5019289;28;20029;-81
2023/04/17 02:44:23;;;;;;;9.10;3.03;;;;;;;;;;5017138;28;20038;-81
2023/04/17 02:46:49;;;;;;;9.98;3.08;;;;;;;;;;5015890;28;20045;-80
2023/04/17 02:49:21;;;;;;;8.05;2.90;;;;;;;;;;5016994;28;20060;-80
2023/04/17 02:51:53;;;;;;;6.45;2.90;;;;;;;;;;5020526;28;20092;-81
2023/04/17 02:54:19;;;;;;;8.55;2.63;;;;;;;;;;5018284;28;20045;-80
2023/04/17 02:56:51;;;;;;;7.10;2.22;;;;;;;;;;5015443;28;20080;-80
2023/04/17 02:59:25;;;;;;;10.45;2.60;;;;;;;;;;5022600;28;20041;-80
2023/04/17 03:01:50;;;;;;;7.20;2.42;;;;;;;;;;5014846;28;20072;-80
2023/04/17 03:04:22;;;;;;;4.30;2.40;;;;;;;;;;5016696;28;20050;-80
2023/04/17 03:06:54;;;;;;;5.68;2.28;;;;;;;;;;5015640;28;20034;-80
2023/04/17 03:09:21;;;;;;;13.18;3.50;;;;;;;;;;5015686;28;20054;-80
2023/04/17 03:11:55;;;;;;;14.63;3.08;;;;;;;;;;5017887;28;20030;-81
2023/04/17 03:14:27;;;;;;;10.95;2.60;;;;;;;;;;5015959;28;20041;-80
2023/04/17 03:16:53;;;;;;;8.23;2.40;;;;;;;;;;5015233;28;20541;-81
2023/04/17 03:19:24;;;;;;;12.65;2.60;;;;;;;;;;5013550;28;20141;-82
2023/04/17 03:21:56;;;;;;;6.90;2.53;;;;;;;;;;5018306;28;20120;-81
2023/04/17 03:24:22;;;;;;;6.30;2.80;;;;;;;;;;5016251;28;20046;-80
2023/04/17 03:26:53;;;;;;;12.73;2.85;;;;;;;;;;5017727;28;20036;-81
2023/04/17 03:29:25;;;;;;;8.63;2.85;;;;;;;;;;5016041;28;20099;-81
2023/04/17 03:31:51;;;;;;;8.15;3.08;;;;;;;;;;5015153;28;20037;-81
2023/04/17 03:34:24;;;;;;;6.88;2.35;;;;;;;;;;5015465;28;20038;-80
2023/04/17 03:36:57;;;;;;;7.07;2.65;;;;;;;;;;5025250;28;20120;-80
2023/04/17 03:39:23;;;;;;;5.68;2.30;;;;;;;;;;5011848;28;20478;-81
2023/04/17 03:41:55;;;;;;;10.85;2.28;;;;;;;;;;5014734;28;20092;-79
2023/04/17 03:44:27;;;;;;;5.93;2.40;;;;;;;;;;5015507;28;20132;-81
2023/04/17 03:46:52;;;;;;;7.25;2.45;;;;;;;;;;5022847;28;20045;-80
2023/04/17 03:49:24;;;;;;;7.25;2.50;;;;;;;;;;5016769;28;20087;-81
2023/04/17 03:51:56;;;;;;;7.63;2.00;;;;;;;;;;5014952;28;20053;-80
2023/04/17 03:54:22;;;;;;;7.95;2.50;;;;;;;;;;5015300;28;20045;-80
2023/04/17 03:56:53;;;;;;;6.10;1.98;;;;;;;;;;5015491;28;20041;-79
2023/04/17 03:59:25;;;;;;;7.88;2.60;;;;;;;;;;5023500;28;20176;-81
2023/04/17 04:01:52;;;;;;;6.80;2.53;;;;;;;;;;5013690;28;20121;-80
2023/04/17 04:04:24;;;;;;;9.30;2.42;;;;;;;;;;5014640;28;20046;-80
2023/04/17 04:06:56;;;;;;;12.85;2.90;;;;;;;;;;5014042;28;20045;-81
2023/04/17 04:09:23;;;;;;;9.80;2.45;;;;;;;;;;5015099;28;20091;-80
2023/04/17 04:11:56;;;;;;;7.88;2.40;;;;;;;;;;5011808;28;20533;-81
2023/04/17 04:14:27;;;;;;;7.30;2.45;;;;;;;;;;5015348;28;20064;-80
2023/04/17 04:16:53;;;;;;;5.75;2.30;;;;;;;;;;5013915;28;20375;-80
2023/04/17 04:19:25;;;;;;;5.07;2.33;;;;;;;;;;5017213;28;20057;-80
2023/04/17 04:21:57;;;;;;;11.43;2.28;;;;;;;;;;5018163;28;20137;-81
2023/04/17 04:24:24;;;;;;;4.90;2.15;;;;;;;;;;5018434;28;20397;-79
2023/04/17 04:27:03;;;;;;;7.03;2.45;;;;;;;;;;5009347;28;20371;-80
2023/04/17 04:29:36;;;;;;;7.25;2.33;;;;;;;;;;5011635;28;20103;-81
2023/04/17 04:32:08;;;;;;;4.10;2.10;;;;;;;;;;5010705;28;20042;-80
2023/04/17 04:34:35;;;;;;;6.25;2.30;;;;;;;;;;5015236;28;20038;-80
2023/04/17 04:37:07;;;;;;;4.78;2.17;;;;;;;;;;5014334;28;20030;-81
2023/04/17 04:39:39;;;;;;;5.63;2.35;;;;;;;;;;5013947;28;20045;-81
2023/04/17 04:42:05;;;;;;;8.60;2.95;;;;;;;;;;5015186;28;20040;-81
2023/04/17 04:44:36;;;;;;;8.52;2.13;;;;;;;;;;5014735;28;20041;-81
2023/04/17 04:47:08;;;;;;;6.47;2.25;;;;;;;;;;5014056;28;20033;-81
2023/04/17 04:49:33;;;;;;;5.47;2.28;;;;;;;;;;5009411;28;20096;-81
2023/04/17 04:52:05;;;;;;;15.07;2.40;;;;;;;;;;5006810;28;20065;-81
2023/04/17 04:54:37;;;;;;;7.43;2.63;;;;;;;;;;5005611;28;20041;-80
2023/04/17 04:57:02;;;;;;;4.43;2.30;;;;;;;;;;5013297;28;20432;-80
2023/04/17 04:59:34;;;;;;;6.75;2.30;;;;;;;;;;5014340;28;20042;-81
2023/04/17 05:02:06;;;;;;;12.18;2.47;;;;;;;;;;5013037;28;20038;-80
2023/04/17 05:04:31;;;;;;;10.25;2.47;;;;;;;;;;5013442;28;20188;-80
2023/04/17 05:07:04;;;;;;;8.38;2.20;;;;;;;;;;5011400;28;20112;-80
2023/04/17 05:09:39;;;;;;;5.72;2.22;;;;;;;;;;5009558;28;20486;-81
2023/04/17 05:12:11;;;;;;;7.50;2.13;;;;;;;;;;5012387;28;20390;-80
2023/04/17 05:14:38;;;;;;;6.40;2.10;;;;;;;;;;5013510;28;20037;-81
2023/04/17 05:17:10;;;;;;;7.05;2.92;;;;;;;;;;5012893;28;20120;-81
2023/04/17 05:19:42;;;;;;;4.75;2.30;;;;;;;;;;5022278;28;20505;-79
2023/04/17 05:22:08;;;;;;;8.60;2.30;;;;;;;;;;5020661;28;20038;-80
2023/04/17 05:24:39;;;;;;;5.25;2.20;;;;;;;;;;5014512;28;20041;-81
2023/04/17 05:27:11;;;;;;;7.10;2.70;;;;;;;;;;5015770;28;20037;-81
2023/04/17 05:29:37;;;;;;;5.68;2.00;;;;;;;;;;5014192;28;20034;-80
2023/04/17 05:32:09;;;;;;;6.45;2.40;;;;;;;;;;5014888;28;20030;-80
2023/04/17 05:34:41;;;;;;;7.88;2.28;;;;;;;;;;5014368;28;20045;-80
2023/04/17 05:37:07;;;;;;;10.60;2.10;;;;;;;;;;5013709;28;20048;-81
2023/04/17 05:39:38;;;;;;;6.78;2.45;;;;;;;;;;5019167;28;20030;-80
2023/04/17 05:42:10;;;;;;;6.90;2.53;;;;;;;;;;5022381;28;20429;-81
2023/04/17 05:44:35;;;;;;;8.27;3.00;;;;;;;;;;5014123;28;20042;-81
2023/04/17 05:47:07;;;;;;;5.10;2.30;;;;;;;;;;5013268;28;20095;-81
2023/04/17 05:49:39;;;;;;;6.32;2.03;;;;;;;;;;5013952;28;20425;-81
2023/04/17 05:52:05;;;;;;;6.20;2.00;;;;;;;;;;5011975;28;20048;-80
2023/04/17 05:54:37;;;;;;;4.53;2.08;;;;;;;;;;5015952;28;20029;-81
2023/04/17 05:57:09;;;;;;;9.50;2.60;;;;;;;;;;5014422;28;20084;-81
2023/04/17 05:59:35;;;;;;;9.23;2.75;;;;;;;;;;5010678;28;20060;-80
2023/04/17 06:02:07;;;;;;;8.50;2.40;;;;;;;;;;5019760;28;20473;-80
2023/04/17 06:04:40;;;;;;;3.88;2.08;;;;;;;;;;5012953;28;20042;-80
2023/04/17 06:07:06;;;;;;;5.05;2.30;;;;;;;;;;5013362;28;20456;-81
2023/04/17 06:09:40;;;;;;;5.72;2.00;;;;;;;;;;5014132;28;20117;-81
2023/04/17 06:12:14;;;;;;;6.80;2.20;;;;;;;;;;5048725;28;20419;-81
2023/04/17 06:14:47;;;;;;;5.80;2.38;;;;;;;;;;5013881;28;20100;-80
2023/04/17 06:17:20;;;;;;;5.30;2.20;;;;;;;;;;5012868;28;20045;-80
2023/04/17 06:19:45;;;;;;;8.15;2.03;;;;;;;;;;5019698;28;20060;-81
2023/04/17 06:22:17;;;;;;;8.18;1.98;;;;;;;;;;5020493;28;20034;-80
2023/04/17 06:24:49;;;;;;;4.50;2.17;;;;;;;;;;5018394;28;20046;-81
2023/04/17 06:27:15;;;;;;;3.85;2.00;;;;;;;;;;5015699;28;20041;-81
2023/04/17 06:29:47;;;;;;;4.85;1.95;;;;;;;;;;5020592;28;20049;-80
2023/04/17 06:32:19;;;;;;;4.53;2.03;;;;;;;;;;5017161;28;20052;-80
2023/04/17 06:34:45;;;;;;;5.40;2.17;;;;;;;;;;5016254;28;20046;-81
2023/04/17 06:37:17;;;;;;;5.70;1.92;;;;;;;;;;5019833;28;20038;-80
2023/04/17 06:39:49;;;;;;;9.25;2.20;;;;;;;;;;5017105;28;20099;-81
2023/04/17 06:42:15;;;;;;;5.72;2.05;;;;;;;;;;5015683;28;20042;-81
2023/04/17 06:44:47;;;;;;;5.15;2.10;;;;;;;;;;5023223;28;20030;-80
2023/04/17 06:47:19;;;;;;;6.63;2.03;;;;;;;;;;5014585;28;20505;-80
2023/04/17 06:49:45;;;;;;;7.88;2.75;;;;;;;;;;5015796;28;20070;-80
2023/04/17 06:52:19;;;;;;;11.45;2.67;;;;;;;;;;5015806;28;20119;-80
2023/04/17 06:54:53;;;;;;;6.18;2.25;;;;;;;;;;5014649;28;20501;-81
2023/04/17 06:57:25;;;;;;;4.55;2.28;;;;;;;;;;5015622;28;20042;-81
2023/04/17 06:59:57;;;;;;;6.97;2.00;;;;;;;;;;5015539;28;20034;-81
2023/04/17 07:02:23;;;;;;;6.70;2.25;;;;;;;;;;5019199;28;20049;-81
2023/04/17 07:04:54;;;;;;;8.30;2.30;;;;;;;;;;5018277;28;20050;-81
2023/04/17 07:07:28;;;;;;;8.02;2.50;;;;;;;;;;5023427;28;20034;-80
2023/04/17 07:09:54;;;;;;;6.38;2.35;;;;;;;;;;5027354;28;20125;-80
2023/04/17 07:12:26;;;;;;;6.20;2.28;;;;;;;;;;5020673;28;20108;-80
2023/04/17 07:14:58;;;;;;;5.60;1.95;;;;;;;;;;5019769;28;20037;-81
2023/04/17 07:17:25;;;;;;;5.93;2.40;;;;;;;;;;5015476;28;20049;-80
2023/04/17 07:19:57;;;;;;;6.82;2.22;;;;;;;;;;5015069;28;20050;-79
2023/04/17 07:22:29;;;;;;;9.73;3.10;;;;;;;;;;5020545;28;20038;-80
2023/04/17 07:24:55;;;;;;;13.10;4.72;;;;;;;;;;5015093;28;20058;-81
2023/04/17 07:27:26;;;;;;;16.65;5.05;;;;;;;;;;5030327;28;20060;-81
2023/04/17 07:29:58;;;;;;;14.68;5.90;;;;;;;;;;5014926;28;20088;-80
2023/04/17 07:32:24;;;;;;;10.32;4.22;;;;;;;;;;5015175;28;20041;-81
2023/04/17 07:34:56;;;;;;;15.02;4.95;;;;;;;;;;5014957;28;20088;-81
2023/04/17 07:37:28;;;;;;;16.15;6.80;;;;;;;;;;5014905;28;20046;-81
2023/04/17 07:39:54;;;;;;;15.88;5.78;;;;;;;;;;5007757;28;20390;-81
2023/04/17 07:42:28;;;;;;;17.38;6.35;;;;;;;;;;5014191;28;20092;-80
2023/04/17 07:44:59;;;;;;;14.40;5.18;;;;;;;;;;5012390;28;20445;-81
2023/04/17 07:47:25;;;;;;;14.93;5.57;;;;;;;;;;5013864;28;20038;-81
2023/04/17 07:49:56;;;;;;;13.88;5.05;;;;;;;;;;5014761;28;20079;-81
2023/04/17 07:52:28;;;;;;;15.60;4.90;;;;;;;;;;5012726;28;20038;-81
2023/04/17 07:55:03;;;;;;;12.73;4.85;;;;;;;;;;5012021;28;20038;-80
2023/04/17 07:57:35;;;;;;;12.05;5.35;;;;;;;;;;5003744;28;20052;-81
2023/04/17 08:00:01;;;;;;;13.50;5.05;;;;;;;;;;5014274;28;20048;-81
2023/04/17 08:02:32;;;;;;;10.70;4.78;;;;;;;;;;5012645;28;20026;-81
2023/04/17 08:05:05;;;;;;;10.68;4.22;;;;;;;;;;5005833;28;20172;-81
2023/04/17 08:07:31;;;;;;;9.30;3.83;;;;;;;;;;5034167;28;20402;-81
2023/04/17 08:10:02;;;;;;;7.50;2.97;;;;;;;;;;5025318;28;20045;-81
2023/04/17 08:12:35;;;;;;;10.75;4.15;;;;;;;;;;5019845;28;20397;-81
2023/04/17 08:15:00;;;;;;;10.77;4.43;;;;;;;;;;5013507;28;20112;-79
2023/04/17 08:17:32;;;;;;;13.13;5.43;;;;;;;;;;5013319;28;20085;-80
2023/04/17 08:20:09;;;;;;;13.38;5.07;;;;;;;;;;5011513;28;20058;-80
2023/04/17 08:22:45;;;;;;;15.23;5.32;;;;;;;;;;5013764;28;20032;-81
2023/04/17 08:25:17;;;;;;;16.58;5.95;;;;;;;;;;5011003;28;20050;-81
2023/04/17 08:27:43;;;;;;;13.98;6.43;;;;;;;;;;5011380;28;20108;-80
2023/04/17 08:30:19;;;;;;;12.75;6.22;;;;;;;;;;5012402;28;20045;-81
2023/04/17 08:32:51;;;;;;;14.70;5.07;;;;;;;;;;5027110;28;20034;-80
2023/04/17 08:35:16;;;;;;;10.32;5.65;;;;;;;;;;5011777;28;20120;-80
2023/04/17 08:37:49;;;;;;;16.20;6.07;;;;;;;;;;5015239;28;20129;-81
2023/04/17 08:40:23;;;;;;;12.60;6.38;;;;;;;;;;5013897;28;20394;-81
2023/04/17 08:42:49;;;;;;;18.08;6.82;;;;;;;;;;5015215;28;20083;-80
2023/04/17 08:45:22;;;;;;;18.60;7.13;;;;;;;;;;5016705;28;20061;-81
2023/04/17 08:47:54;;;;;;;15.40;7.05;;;;;;;;;;5019845;28;20038;-78
2023/04/17 08:50:20;;;;;;;19.27;8.27;;;;;;;;;;5007367;28;20042;-81
2023/04/17 08:52:56;;;;;;;21.58;10.55;;;;;;;;;;5009689;28;20363;-81
2023/04/17 08:55:28;;;;;;;22.77;10.38;;;;;;;;;;5010660;28;20406;-81
2023/04/17 08:58:11;;;;;;;17.88;8.98;;;;;;;;;;5016121;28;20444;-80
2023/04/17 09:00:44;;;;;;;25.67;9.13;;;;;;;;;;5013299;28;20055;-79
2023/04/17 09:03:17;;;;;;;20.27;9.30;;;;;;;;;;5024840;28;20042;-79
2023/04/17 09:05:45;;;;;;;26.98;10.55;;;;;;;;;;4992640;28;20100;-80
2023/04/17 09:08:25;;;;;;;25.15;11.30;;;;;;;;;;5008524;28;20041;-80
2023/04/17 09:10:54;;;;;;;24.77;10.60;;;;;;;;;;5006108;28;20046;-80
2023/04/17 09:13:33;;;;;;;21.38;11.02;;;;;;;;;;5005520;28;20401;-78
2023/04/17 09:16:07;;;;;;;23.75;10.73;;;;;;;;;;5006872;28;20096;-80
2023/04/17 09:18:46;;;;;;;22.15;10.15;;;;;;;;;;5006671;28;20050;-80
2023/04/17 09:21:13;;;;;;;24.63;11.75;;;;;;;;;;5021485;28;20161;-80
2023/04/17 09:24:04;;;;;;;24.23;10.35;;;;;;;;;;5007181;28;20042;-81
2023/04/17 09:26:30;;;;;;;18.23;10.15;;;;;;;;;;5005473;28;20041;-80
2023/04/17 09:29:10;;;;;;;24.20;11.27;;;;;;;;;;5003126;28;20481;-80
2023/04/17 09:31:40;;;;;;;24.98;10.63;;;;;;;;;;5007025;28;20042;-80
2023/04/17 09:34:19;;;;;;;17.10;10.20;;;;;;;;;;5021536;28;20034;-80
2023/04/17 09:36:45;;;;;;;20.05;9.45;;;;;;;;;;5007005;28;20038;-82
2023/04/17 09:39:30;;;;;;;17.50;9.88;;;;;;;;;;5007066;28;20048;-80
2023/04/17 09:42:02;;;;;;;20.88;10.20;;;;;;;;;;5006350;28;20059;-80
2023/04/17 09:44:41;;;;;;;18.23;9.85;;;;;;;;;;5008210;28;20034;-80
2023/04/17 09:47:07;;;;;;;19.15;10.07;;;;;;;;;;5009248;28;20099;-80
2023/04/17 09:49:51;;;;;;;20.52;9.93;;;;;;;;;;5007137;28;20034;-80
2023/04/17 09:52:18;;;;;;;22.63;10.82;;;;;;;;;;5003077;28;20099;-80
2023/04/17 09:54:56;;;;;;;24.50;11.00;;;;;;;;;;4998352;28;20025;-77
2023/04/17 09:57:21;;;;;;;22.15;11.05;;;;;;;;;;5004284;28;20046;-80
2023/04/17 09:59:48;;;;;;;22.33;10.57;;;;;;;;;;5006873;28;20036;-80
2023/04/17 10:02:26;;;;;;;22.45;10.43;;;;;;;;;;5007228;28;20036;-80
2023/04/17 10:04:53;;;;;;;23.10;9.98;;;;;;;;;;5009367;28;20095;-80
2023/04/17 10:07:18;;;;;;;20.48;9.90;;;;;;;;;;5044292;28;20390;-80
2023/04/17 10:09:59;;;;;;;17.55;9.80;;;;;;;;;;5010025;28;20037;-80
2023/04/17 10:12:25;;;;;;;26.58;10.88;;;;;;;;;;5004595;28;20121;-81
2023/04/17 10:15:04;;;;;;;20.00;10.05;;;;;;;;;;5008671;28;20176;-80
2023/04/17 10:17:32;;;;;;;20.95;11.10;;;;;;;;;;5038982;28;20046;-81
2023/04/17 10:20:23;;;;;;;22.08;10.27;;;;;;;;;;5010212;28;20081;-77
2023/04/17 10:22:55;;;;;;;16.35;8.40;;;;;;;;;;5010472;28;20127;-81
2023/04/17 10:25:34;;;;;;;16.05;7.85;;;;;;;;;;5011060;28;20041;-80
2023/04/17 10:28:00;;;;;;;15.38;8.25;;;;;;;;;;5042140;28;20042;-80
2023/04/17 10:31:00;;;;;;;18.58;8.43;;;;;;;;;;5011220;28;20108;-80
2023/04/17 10:33:26;;;;;;;19.95;8.35;;;;;;;;;;5009878;28;20140;-80
2023/04/17 10:36:05;;;;;;;15.65;8.13;;;;;;;;;;5009235;28;20458;-80
2023/04/17 10:38:33;;;;;;;19.98;8.80;;;;;;;;;;5010363;28;20095;-80
2023/04/17 10:41:13;;;;;;;15.35;7.68;;;;;;;;;;5009491;28;20505;-81
2023/04/17 10:43:40;;;;;;;12.93;6.97;;;;;;;;;;5009878;28;20100;-80
2023/04/17 10:46:22;;;;;;;13.10;7.05;;;;;;;;;;5010825;28;20030;-81
2023/04/17 10:48:51;;;;;;;17.45;7.70;;;;;;;;;;5007404;28;20107;-80
2023/04/17 10:51:31;;;;;;;15.30;6.80;;;;;;;;;;5043687;28;20084;-78
2023/04/17 10:53:57;;;;;;;17.38;6.65;;;;;;;;;;5010523;28;20049;-80
2023/04/17 10:56:48;;;;;;;16.42;7.97;;;;;;;;;;5009995;28;20030;-80
2023/04/17 10:59:17;;;;;;;11.48;6.53;;;;;;;;;;5009306;28;20062;-80
2023/04/17 11:01:56;;;;;;;13.45;5.65;;;;;;;;;;5009272;28;20030;-79
2023/04/17 11:04:23;;;;;;;7.05;4.45;;;;;;;;;;5009700;28;20128;-80
2023/04/17 11:06:51;;;;;;;11.38;5.93;;;;;;;;;;5011168;28;20030;-80
2023/04/17 11:09:32;;;;;;;9.00;6.00;;;;;;;;;;5014838;28;20357;-80
2023/04/17 11:12:02;;;;;;;13.57;5.70;;;;;;;;;;5009514;28;20088;-80
2023/04/17 11:14:45;;;;;;;8.50;4.97;;;;;;;;;;5023585;28;20037;-80
2023/04/17 11:17:10;;;;;;;7.50;5.00;;;;;;;;;;5009024;28;20456;-81
2023/04/17 11:19:43;;;;;;;8.45;4.65;;;;;;;;;;5008305;28;20076;-79
2023/04/17 11:22:15;;;;;;;8.32;4.07;;;;;;;;;;5008421;28;20046;-80
2023/04/17 11:24:40;;;;;;;8.40;4.05;;;;;;;;;;5009735;28;20075;-80
2023/04/17 11:27:13;;;;;;;7.20;4.25;;;;;;;;;;5011311;28;20041;-77
2023/04/17 11:29:45;;;;;;;8.10;4.22;;;;;;;;;;5008911;28;20049;-78
2023/04/17 11:32:13;;;;;;;6.93;3.70;;;;;;;;;;5008810;28;20040;-80
2023/04/17 11:34:53;;;;;;;7.88;4.43;;;;;;;;;;5009077;28;20038;-80
2023/04/17 11:37:18;;;;;;;6.07;4.13;;;;;;;;;;5010608;28;20045;-80
2023/04/17 11:39:44;;;;;;;8.57;4.22;;;;;;;;;;5009056;28;20060;-78
2023/04/17 11:42:32;;;;;;;6.65;4.07;;;;;;;;;;5010442;28;20033;-80
2023/04/17 11:45:06;;;;;;;7.55;4.57;;;;;;;;;;5010138;28;20044;-80
2023/04/17 11:47:44;;;;;;;8.23;3.80;;;;;;;;;;5007506;28;20522;-78
2023/04/17 11:50:09;;;;;;;7.65;3.70;;;;;;;;;;5007808;28;20099;-80
2023/04/17 11:52:35;;;;;;;9.10;4.47;;;;;;;;;;5005019;28;20689;-78
2023/04/17 11:55:14;;;;;;;7.63;4.63;;;;;;;;;;4986497;28;20564;-80
2023/04/17 11:57:44;;;;;;;7.75;4.60;;;;;;;;;;4985414;28;20432;-80
2023/04/17 12:00:26;;;;;;;7.78;4.38;;;;;;;;;;4986624;28;20033;-78
2023/04/17 12:02:52;;;;;;;8.02;4.90;;;;;;;;;;4988626;28;20872;-78
2023/04/17 12:05:31;;;;;;;9.93;4.28;;;;;;;;;;5007423;28;20085;-81
2023/04/17 12:08:04;;;;;;;10.50;5.32;;;;;;;;;;5010561;28;20050;-81
2023/04/17 12:10:49;;;;;;;14.35;4.97;;;;;;;;;;4988309;28;20103;-78
2023/04/17 12:13:15;;;;;;;8.50;4.57;;;;;;;;;;4985040;28;20132;-78
2023/04/17 12:15:46;;;;;;;6.10;3.83;;;;;;;;;;4986608;28;20492;-78
2023/04/17 12:18:18;;;;;;;7.25;4.15;;;;;;;;;;4986254;28;20038;-79
2023/04/17 12:20:43;;;;;;;9.32;4.75;;;;;;;;;;5013160;28;20045;-81
2023/04/17 12:23:15;;;;;;;6.70;4.15;;;;;;;;;;5006695;28;20030;-80
2023/04/17 12:25:47;;;;;;;8.75;4.35;;;;;;;;;;4980897;28;20391;-78
2023/04/17 12:28:12;;;;;;;7.35;4.28;;;;;;;;;;4979584;28;20054;-78
2023/04/17 12:30:44;;;;;;;7.03;4.35;;;;;;;;;;4980271;28;20123;-78
2023/04/17 12:33:16;;;;;;;7.05;4.13;;;;;;;;;;4984288;28;20352;-81
2023/04/17 12:35:41;;;;;;;4.38;3.08;;;;;;;;;;5053067;28;20042;-81
2023/04/17 12:38:14;;;;;;;7.32;4.25;;;;;;;;;;4986533;28;20532;-78
2023/04/17 12:40:46;;;;;;;7.15;4.40;;;;;;;;;;4980078;28;20095;-79
2023/04/17 12:43:12;;;;;;;7.57;4.55;;;;;;;;;;4980820;28;20493;-78
2023/04/17 12:45:46;;;;;;;9.45;5.00;;;;;;;;;;4980014;28;20052;-78
2023/04/17 12:48:19;;;;;;;7.28;4.70;;;;;;;;;;5004381;28;20512;-81
2023/04/17 12:50:53;;;;;;;6.45;4.47;;;;;;;;;;5009309;28;20038;-81
2023/04/17 12:53:18;;;;;;;7.43;4.50;;;;;;;;;;5007106;28;20507;-79
2023/04/17 12:55:50;;;;;;;8.05;4.13;;;;;;;;;;5002394;28;20037;-78
2023/04/17 12:58:22;;;;;;;6.78;4.10;;;;;;;;;;4976930;28;20038;-80
2023/04/17 13:00:48;;;;;;;8.10;3.80;;;;;;;;;;4980427;28;20046;-79
2023/04/17 13:03:20;;;;;;;7.28;4.55;;;;;;;;;;5006292;28;20036;-82
2023/04/17 13:05:52;;;;;;;6.45;4.18;;;;;;;;;;5005787;28;20044;-81
2023/04/17 13:08:18;;;;;;;8.13;4.07;;;;;;;;;;5005012;28;20042;-81
2023/04/17 13:10:50;;;;;;;7.18;3.78;;;;;;;;;;5004347;28;20468;-79
2023/04/17 13:13:22;;;;;;;7.15;4.10;;;;;;;;;;5010526;28;20492;-82
2023/04/17 13:15:48;;;;;;;6.43;4.10;;;;;;;;;;5004782;28;20042;-79
2023/04/17 13:18:20;;;;;;;8.68;4.55;;;;;;;;;;5010046;28;20542;-80
2023/04/17 13:20:52;;;;;;;7.10;3.65;;;;;;;;;;5010383;28;20034;-79
2023/04/17 13:23:18;;;;;;;5.93;3.45;;;;;;;;;;5010748;28;20486;-78
2023/04/17 13:25:49;;;;;;;6.13;3.45;;;;;;;;;;5007099;28;20048;-81
2023/04/17 13:28:21;;;;;;;3.25;2.35;;;;;;;;;;4991009;28;20046;-80
2023/04/17 13:30:47;;;;;;;4.43;2.05;;;;;;;;;;5002549;28;20038;-79
2023/04/17 13:33:18;;;;;;;3.95;2.08;;;;;;;;;;5038238;28;20041;-80
2023/04/17 13:35:52;;;;;;;4.43;2.53;;;;;;;;;;5006342;28;20153;-80
2023/04/17 13:38:17;;;;;;;;;;;;;;;;;;5010368;28;20037;-81
2023/04/17 13:40:49;;;;;;;3.60;2.40;;;;;;;;;;5010448;28;20281;-79
2023/04/17 13:43:21;;;;;;;4.88;2.80;;;;;;;;;;5009917;28;20046;-80
2023/04/17 13:45:48;;;;;;;3.83;1.73;;;;;;;;;;5008036;28;20040;-81
2023/04/17 13:48:20;;;;;;;5.38;2.15;;;;;;;;;;5010452;28;20482;-80
2023/04/17 13:50:53;;;;;;;4.10;1.95;;;;;;;;;;5010788;28;20092;-80
2023/04/17 13:53:18;;;;;;;3.72;1.60;;;;;;;;;;5011504;28;20042;-81
2023/04/17 13:55:50;;;;;;;5.38;2.50;;;;;;;;;;5011593;28;20037;-80
2023/04/17 13:58:22;;;;;;;6.88;2.33;;;;;;;;;;5010787;28;20398;-81
2023/04/17 14:00:48;;;;;;;7.30;2.30;;;;;;;;;;5009432;28;20385;-80
2023/04/17 14:03:19;;;;;;;5.47;2.30;;;;;;;;;;5009890;28;20156;-80
2023/04/17 14:05:51;;;;;;;6.88;2.40;;;;;;;;;;5010791;28;20091;-80
2023/04/17 14:08:17;;;;;;;3.80;2.28;;;;;;;;;;5011822;28;20121;-81
2023/04/17 14:10:49;;;;;;;4.45;2.40;;;;;;;;;;5009320;28;20136;-79
2023/04/17 14:13:21;;;;;;;5.25;2.05;;;;;;;;;;5006029;28;20046;-80
2023/04/17 14:15:47;;;;;;;6.30;2.30;;;;;;;;;;5008535;28;20073;-80
2023/04/17 14:18:19;;;;;;;3.70;2.00;;;;;;;;;;5011782;28;20068;-81
2023/04/17 14:20:52;;;;;;;3.13;1.70;;;;;;;;;;5010412;28;20042;-79
2023/04/17 14:23:18;;;;;;;4.00;1.70;;;;;;;;;;5012047;28;20471;-78
2023/04/17 14:25:50;;;;;;;4.32;1.60;;;;;;;;;;5027360;28;20084;-80
2023/04/17 14:28:23;;;;;;;3.35;1.42;;;;;;;;;;5007597;28;20039;-81
2023/04/17 14:30:49;;;;;;;2.92;1.45;;;;;;;;;;5011162;28;20045;-79
2023/04/17 14:33:20;;;;;;;3.60;1.63;;;;;;;;;;5011151;28;20034;-80
2023/04/17 14:35:55;;;;;;;3.50;2.15;;;;;;;;;;5010237;28;20038;-80
2023/04/17 14:38:27;;;;;;;3.72;2.10;;;;;;;;;;5013382;28;20416;-79
2023/04/17 14:40:59;;;;;;;5.40;1.90;;;;;;;;;;5010783;28;20444;-80
2023/04/17 14:43:25;;;;;;;2.80;1.73;;;;;;;;;;5010924;28;20052;-80
2023/04/17 14:45:57;;;;;;;7.65;2.10;;;;;;;;;;5010757;28;20025;-80
2023/04/17 14:48:29;;;;;;;4.25;2.10;;;;;;;;;;5011430;28;20084;-80
2023/04/17 14:50:55;;;;;;;4.50;1.75;;;;;;;;;;5011023;28;20041;-81
2023/04/17 14:53:26;;;;;;;3.95;1.88;;;;;;;;;;5011682;28;20038;-81
2023/04/17 14:55:59;;;;;;;4.00;1.50;;;;;;;;;;5010952;28;20033;-80
2023/04/17 14:58:24;;;;;;;5.03;1.70;;;;;;;;;;5010645;28;20042;-79
2023/04/17 15:00:56;;;;;;;3.40;1.60;;;;;;;;;;5010066;28;20030;-78